Coalby, Colorado
Current Conditions -  °F | °C
As of 12:15 AM on Sunday 23 Nov 2014 (Local Time) from KAJZ Reporting Station
Overcast Overcast  
Wind Chill: 34°   Ceiling: 2000
Heat Index: 39°   Visibility: 10mi
Dew Point: 36°   Wind: 8mph
Humidity: 88%   Direction: 190°S
Pressure: 29.8"   Gusts: NA
Location:  38.9793°N, 107.894°W
Report Text: KAJZ 230715Z AUTO 19007KT 10SM SCT015 BKN020 OVC045 04/02 A2980 RMK AO2 P0001 T00410023
Loading
Personal Weather Stations






























Interactive Weather Map New forecast layout! Learn more

10-Day Weather Forecast

Advertisements
Track Severe Weather on mobile